createdAt,value
2017-01-31T00:00:27.249Z,22.54
2017-01-31T00:00:55.423Z,22.49
2017-01-31T00:01:23.673Z,22.45
2017-01-31T00:01:51.843Z,22.49
2017-01-31T00:02:20.060Z,22.51
2017-01-31T00:02:48.266Z,22.46
2017-01-31T00:03:16.427Z,22.48
2017-01-31T00:03:44.578Z,22.6
2017-01-31T00:04:12.774Z,22.55
2017-01-31T00:04:41.100Z,22.48
2017-01-31T00:05:09.136Z,22.59
2017-01-31T00:05:37.394Z,22.51
2017-01-31T00:06:05.593Z,22.55
2017-01-31T00:06:33.885Z,22.45
2017-01-31T00:07:01.962Z,22.51
2017-01-31T00:07:29.960Z,22.49
2017-01-31T00:07:58.101Z,22.49
2017-01-31T00:08:26.189Z,22.46
2017-01-31T00:08:54.325Z,22.48
2017-01-31T00:09:22.549Z,22.42
2017-01-31T00:09:50.725Z,22.45
2017-01-31T00:10:18.824Z,22.48
2017-01-31T00:10:47.029Z,22.51
2017-01-31T00:11:15.335Z,22.49
2017-01-31T00:11:43.541Z,22.46
2017-01-31T00:12:11.677Z,22.49
2017-01-31T00:12:39.962Z,22.52
2017-01-31T00:13:08.064Z,22.42
2017-01-31T00:13:36.332Z,22.49
2017-01-31T00:14:04.545Z,22.41
2017-01-31T00:14:32.738Z,22.44
2017-01-31T00:15:00.969Z,22.41
2017-01-31T00:15:29.440Z,22.41
2017-01-31T00:15:57.529Z,22.39
2017-01-31T00:16:25.651Z,22.42
2017-01-31T00:16:53.778Z,22.38
2017-01-31T00:17:21.826Z,22.38
2017-01-31T00:17:50.169Z,22.38
2017-01-31T00:18:18.389Z,22.34
2017-01-31T00:18:46.563Z,22.34
2017-01-31T00:19:14.515Z,22.39
2017-01-31T00:19:42.601Z,22.34
2017-01-31T00:20:10.805Z,22.36
2017-01-31T00:20:39.010Z,22.29
2017-01-31T00:21:07.192Z,22.36
2017-01-31T00:21:35.496Z,22.3
2017-01-31T00:22:03.605Z,22.36
2017-01-31T00:22:31.799Z,22.29
2017-01-31T00:23:00.008Z,22.29
2017-01-31T00:23:28.211Z,22.26
2017-01-31T00:23:56.272Z,22.24
2017-01-31T00:24:24.361Z,22.24
2017-01-31T00:24:52.565Z,22.26
2017-01-31T00:25:20.789Z,22.24
2017-01-31T00:25:49.019Z,22.3
2017-01-31T00:26:17.155Z,22.23
2017-01-31T00:26:45.472Z,22.24
2017-01-31T00:27:13.718Z,22.23
2017-01-31T00:27:42.022Z,22.26
2017-01-31T00:28:10.137Z,22.24
2017-01-31T00:28:38.289Z,22.3
2017-01-31T00:29:06.600Z,22.24
2017-01-31T00:29:34.772Z,22.31
2017-01-31T00:30:02.974Z,22.24
2017-01-31T00:30:31.103Z,22.24
2017-01-31T00:30:59.423Z,22.2
2017-01-31T00:31:27.513Z,22.18
2017-01-31T00:31:55.539Z,22.26
2017-01-31T00:32:23.647Z,22.23
2017-01-31T00:32:51.786Z,22.22
2017-01-31T00:33:20.057Z,22.22
2017-01-31T00:33:48.182Z,22.27
2017-01-31T00:34:16.365Z,22.24
2017-01-31T00:34:44.543Z,22.27
2017-01-31T00:35:12.798Z,22.26
2017-01-31T00:35:40.760Z,22.2
2017-01-31T00:36:08.790Z,22.3
2017-01-31T00:36:37.052Z,22.26
2017-01-31T00:37:05.407Z,22.2
2017-01-31T00:37:33.547Z,22.18
2017-01-31T00:38:01.782Z,22.15
2017-01-31T00:38:29.989Z,22.18
2017-01-31T00:38:58.091Z,22.14
2017-01-31T00:39:26.341Z,22.24
2017-01-31T00:39:54.546Z,22.23
2017-01-31T00:40:22.556Z,22.2
2017-01-31T00:40:50.950Z,22.23
2017-01-31T00:41:19.152Z,22.16
2017-01-31T00:41:47.171Z,22.16
2017-01-31T00:42:15.368Z,22.2
2017-01-31T00:42:43.390Z,22.11
2017-01-31T00:43:11.578Z,22.12
2017-01-31T00:43:39.805Z,22.14
2017-01-31T00:44:07.825Z,22.18
2017-01-31T00:44:35.939Z,22.15
2017-01-31T00:45:04.267Z,22.2
2017-01-31T00:45:32.463Z,22.12
2017-01-31T00:46:00.699Z,22.22
2017-01-31T00:46:28.707Z,22.16
2017-01-31T00:46:56.798Z,22.16
2017-01-31T00:47:25.006Z,22.18
2017-01-31T00:47:53.242Z,22.12
2017-01-31T00:48:21.449Z,22.14
2017-01-31T00:48:49.465Z,22.22
2017-01-31T00:49:17.547Z,22.12
2017-01-31T00:49:45.830Z,22.2
2017-01-31T00:50:13.967Z,22.12
2017-01-31T00:50:42.115Z,22.11
2017-01-31T00:51:10.423Z,22.16
2017-01-31T00:51:38.662Z,22.11
2017-01-31T00:52:06.780Z,22.09
2017-01-31T00:52:34.813Z,22.14
2017-01-31T00:53:03.144Z,22.18
2017-01-31T00:53:31.286Z,22.09
2017-01-31T00:53:59.433Z,22.09
2017-01-31T00:54:27.644Z,22.09
2017-01-31T00:54:55.789Z,22.11
2017-01-31T00:55:23.921Z,22.11
2017-01-31T00:55:52.121Z,22.09
2017-01-31T00:56:20.696Z,22.12
2017-01-31T00:56:48.820Z,22.12
2017-01-31T00:57:16.852Z,22.15
2017-01-31T00:57:45.007Z,22.04
2017-01-31T00:58:12.976Z,22.15
2017-01-31T00:58:41.179Z,22.08
2017-01-31T00:59:09.318Z,22.05
2017-01-31T00:59:37.461Z,22.14
2017-01-31T01:00:05.558Z,22.12
2017-01-31T01:00:33.801Z,22
2017-01-31T01:01:02.387Z,21.99
2017-01-31T01:01:30.719Z,22.09
2017-01-31T01:01:58.895Z,21.99
2017-01-31T01:02:27.143Z,22.02
2017-01-31T01:02:55.366Z,22.08
2017-01-31T01:03:23.577Z,21.92
2017-01-31T01:03:51.715Z,21.99
2017-01-31T01:04:19.668Z,21.99
2017-01-31T01:04:47.693Z,22
2017-01-31T01:05:15.880Z,22.02
2017-01-31T01:05:43.890Z,22.02
2017-01-31T01:06:12.161Z,22.04
2017-01-31T01:06:40.210Z,22.02
2017-01-31T01:07:08.432Z,21.99
2017-01-31T01:07:36.455Z,22.05
2017-01-31T01:08:04.456Z,22
2017-01-31T01:08:32.602Z,21.99
2017-01-31T01:09:00.610Z,22
2017-01-31T01:09:28.788Z,22
2017-01-31T01:09:57.072Z,22.02
2017-01-31T01:10:25.353Z,22.05
2017-01-31T01:10:53.710Z,22.05
2017-01-31T01:11:21.972Z,21.96
2017-01-31T01:11:50.133Z,21.96
2017-01-31T01:12:18.144Z,22
2017-01-31T01:12:46.322Z,21.99
2017-01-31T01:13:14.599Z,21.94
2017-01-31T01:13:42.704Z,21.94
2017-01-31T01:14:10.960Z,22.02
2017-01-31T01:14:39.280Z,21.93
2017-01-31T01:15:07.576Z,21.89
2017-01-31T01:15:35.775Z,21.85
2017-01-31T01:16:03.933Z,21.94
2017-01-31T01:16:32.257Z,21.85
2017-01-31T01:17:00.363Z,21.82
2017-01-31T01:17:28.643Z,21.92
2017-01-31T01:17:56.693Z,21.89
2017-01-31T01:18:24.722Z,21.92
2017-01-31T01:18:53.016Z,21.89
2017-01-31T01:19:21.329Z,21.8
2017-01-31T01:19:49.507Z,21.83
2017-01-31T01:20:18.063Z,21.83
2017-01-31T01:20:46.179Z,21.89
2017-01-31T01:21:14.539Z,21.78
2017-01-31T01:21:42.791Z,21.78
2017-01-31T01:22:11.118Z,21.9
2017-01-31T01:22:39.447Z,21.83
2017-01-31T01:23:07.672Z,21.85
2017-01-31T01:23:35.899Z,21.77
2017-01-31T01:24:04.056Z,21.78
2017-01-31T01:24:32.234Z,21.8
2017-01-31T01:25:00.525Z,21.78
2017-01-31T01:25:28.557Z,21.71
2017-01-31T01:25:56.629Z,21.78
2017-01-31T01:26:25.028Z,21.71
2017-01-31T01:26:53.209Z,21.73
2017-01-31T01:27:21.490Z,21.77
2017-01-31T01:27:49.722Z,21.73
2017-01-31T01:28:17.926Z,21.74
2017-01-31T01:28:46.147Z,21.68
2017-01-31T01:29:14.333Z,21.73
2017-01-31T01:29:42.419Z,21.7
2017-01-31T01:30:10.496Z,21.74
2017-01-31T01:30:38.743Z,21.74
2017-01-31T01:31:06.754Z,21.74
2017-01-31T01:31:34.847Z,21.71
2017-01-31T01:32:03.150Z,21.8
2017-01-31T01:32:31.363Z,21.71
2017-01-31T01:32:59.359Z,21.74
2017-01-31T01:33:27.572Z,21.68
2017-01-31T01:33:55.758Z,21.77
2017-01-31T01:34:23.941Z,21.73
2017-01-31T01:34:52.125Z,21.73
2017-01-31T01:35:20.364Z,21.74
2017-01-31T01:35:48.517Z,21.74
2017-01-31T01:36:16.858Z,21.76
2017-01-31T01:36:45.154Z,21.66
2017-01-31T01:37:13.178Z,21.68
2017-01-31T01:37:41.359Z,21.53
2017-01-31T01:38:09.491Z,21.7
2017-01-31T01:38:37.677Z,21.68
2017-01-31T01:39:05.892Z,21.59
2017-01-31T01:39:33.994Z,21.56
2017-01-31T01:40:02.131Z,21.59
2017-01-31T01:40:30.256Z,21.56
2017-01-31T01:40:58.432Z,21.71
2017-01-31T01:41:26.678Z,21.59
2017-01-31T01:41:54.873Z,21.62
2017-01-31T01:42:23.070Z,21.55
2017-01-31T01:42:51.161Z,21.64
2017-01-31T01:43:19.192Z,21.68
2017-01-31T01:43:47.356Z,21.66
2017-01-31T01:44:15.382Z,21.71
2017-01-31T01:44:43.685Z,21.66
2017-01-31T01:45:12.007Z,21.58
2017-01-31T01:45:40.238Z,21.58
2017-01-31T01:46:08.430Z,21.7
2017-01-31T01:46:37.100Z,21.61
2017-01-31T01:47:05.311Z,21.66
2017-01-31T01:47:33.425Z,21.59
2017-01-31T01:48:01.620Z,21.66
2017-01-31T01:48:29.689Z,21.59
2017-01-31T01:48:57.932Z,21.52
2017-01-31T01:49:26.184Z,21.7
2017-01-31T01:49:54.498Z,21.64
2017-01-31T01:50:22.566Z,21.61
2017-01-31T01:50:50.843Z,21.49
2017-01-31T01:51:19.125Z,21.62
2017-01-31T01:51:47.430Z,21.53
2017-01-31T01:52:15.655Z,21.56
2017-01-31T01:52:43.668Z,21.62
2017-01-31T01:53:11.670Z,21.56
2017-01-31T01:53:39.830Z,21.53
2017-01-31T01:54:08.077Z,21.62
2017-01-31T01:54:36.417Z,21.62
2017-01-31T01:55:04.627Z,21.51
2017-01-31T01:55:32.835Z,21.67
2017-01-31T01:56:01.010Z,21.55
2017-01-31T01:56:29.366Z,21.62
2017-01-31T01:56:57.649Z,21.58
2017-01-31T01:57:25.827Z,21.64
2017-01-31T01:57:54.044Z,21.53
2017-01-31T01:58:22.135Z,21.61
2017-01-31T01:58:50.269Z,21.56
2017-01-31T01:59:18.443Z,21.64
2017-01-31T01:59:46.643Z,21.55
2017-01-31T02:00:14.978Z,21.56
2017-01-31T02:00:43.322Z,21.55
2017-01-31T02:01:11.444Z,21.55
2017-01-31T02:01:39.693Z,21.67
2017-01-31T02:02:08.043Z,21.55
2017-01-31T02:02:36.167Z,21.61
2017-01-31T02:03:04.314Z,21.58
2017-01-31T02:03:32.585Z,21.64
2017-01-31T02:04:00.755Z,21.59
2017-01-31T02:04:28.765Z,21.55
2017-01-31T02:04:56.943Z,21.67
2017-01-31T02:05:25.260Z,21.55
2017-01-31T02:05:53.520Z,21.55
2017-01-31T02:06:21.709Z,21.68
2017-01-31T02:06:50.155Z,21.59
2017-01-31T02:07:18.420Z,21.56
2017-01-31T02:07:46.742Z,21.64
2017-01-31T02:08:14.874Z,21.64
2017-01-31T02:08:43.238Z,21.55
2017-01-31T02:09:11.339Z,21.67
2017-01-31T02:09:39.674Z,21.64
2017-01-31T02:10:07.722Z,21.61
2017-01-31T02:10:35.725Z,21.59
2017-01-31T02:11:03.925Z,21.58
2017-01-31T02:11:32.062Z,21.56
2017-01-31T02:12:00.512Z,21.58
2017-01-31T02:12:28.810Z,21.53
2017-01-31T02:12:57.095Z,21.62
2017-01-31T02:13:25.158Z,21.55
2017-01-31T02:13:53.468Z,21.53
2017-01-31T02:14:21.659Z,21.56
2017-01-31T02:14:49.783Z,21.67
2017-01-31T02:15:17.986Z,21.67
2017-01-31T02:15:46.142Z,21.68
2017-01-31T02:16:14.373Z,21.62
2017-01-31T02:16:42.447Z,21.62
2017-01-31T02:17:10.719Z,21.62
2017-01-31T02:17:38.875Z,21.64
2017-01-31T02:18:07.001Z,21.67
2017-01-31T02:18:35.110Z,21.64
2017-01-31T02:19:03.464Z,21.66
2017-01-31T02:19:31.715Z,21.56
2017-01-31T02:19:59.847Z,21.49
2017-01-31T02:20:27.880Z,21.67
2017-01-31T02:20:56.082Z,21.58
2017-01-31T02:21:24.042Z,21.53
2017-01-31T02:21:51.964Z,21.66
2017-01-31T02:22:20.247Z,21.62
2017-01-31T02:22:48.523Z,21.58
2017-01-31T02:23:16.858Z,21.7
2017-01-31T02:23:45.224Z,21.58
2017-01-31T02:24:13.453Z,21.53
2017-01-31T02:24:41.711Z,21.62
2017-01-31T02:25:09.865Z,21.56
2017-01-31T02:25:38.171Z,21.59
2017-01-31T02:26:06.344Z,21.68
2017-01-31T02:26:34.357Z,21.68
2017-01-31T02:27:02.652Z,21.59
2017-01-31T02:27:30.924Z,21.67
2017-01-31T02:27:59.230Z,21.59
2017-01-31T02:28:27.183Z,21.59
2017-01-31T02:28:55.452Z,21.73
2017-01-31T02:29:23.756Z,21.56
2017-01-31T02:29:51.926Z,21.55
2017-01-31T02:30:20.145Z,21.55
2017-01-31T02:30:48.182Z,21.53
2017-01-31T02:31:16.357Z,21.56
2017-01-31T02:31:44.517Z,21.58
2017-01-31T02:32:12.904Z,21.59
2017-01-31T02:32:41.011Z,21.64
2017-01-31T02:33:09.345Z,21.53
2017-01-31T02:33:37.515Z,21.67
2017-01-31T02:34:05.735Z,21.61
2017-01-31T02:34:33.842Z,21.56
2017-01-31T02:35:02.068Z,21.58
2017-01-31T02:35:30.220Z,21.62
2017-01-31T02:35:58.462Z,21.67
2017-01-31T02:36:26.704Z,21.62
2017-01-31T02:36:55.034Z,21.61
2017-01-31T02:37:23.101Z,21.64
2017-01-31T02:37:51.212Z,21.7
2017-01-31T02:38:19.360Z,21.68
2017-01-31T02:38:47.575Z,21.56
2017-01-31T02:39:15.766Z,21.66
2017-01-31T02:39:43.875Z,21.56
2017-01-31T02:40:12.191Z,21.62
2017-01-31T02:40:40.558Z,21.55
2017-01-31T02:41:08.780Z,21.66
2017-01-31T02:41:36.884Z,21.53
2017-01-31T02:42:05.137Z,21.71
2017-01-31T02:42:33.554Z,21.73
2017-01-31T02:43:01.764Z,21.71
2017-01-31T02:43:29.852Z,21.67
2017-01-31T02:43:58.039Z,21.67
2017-01-31T02:44:26.196Z,21.68
2017-01-31T02:44:54.496Z,21.67
2017-01-31T02:45:22.579Z,21.7
2017-01-31T02:45:50.657Z,21.68
2017-01-31T02:46:18.804Z,21.73
2017-01-31T02:46:47.017Z,21.71
2017-01-31T02:47:15.565Z,21.71
2017-01-31T02:47:43.720Z,21.64
2017-01-31T02:48:11.952Z,21.7
2017-01-31T02:48:40.105Z,21.7
2017-01-31T02:49:08.326Z,21.74
2017-01-31T02:49:36.549Z,21.77
2017-01-31T02:50:04.721Z,21.78
2017-01-31T02:50:32.822Z,21.7
2017-01-31T02:51:01.049Z,21.7
2017-01-31T02:51:29.148Z,21.7
2017-01-31T02:51:57.441Z,21.71
2017-01-31T02:52:26.022Z,21.68
2017-01-31T02:52:54.305Z,21.78
2017-01-31T02:53:22.597Z,21.83
2017-01-31T02:53:50.880Z,21.8
2017-01-31T02:54:19.144Z,21.85
2017-01-31T02:54:47.446Z,21.83
2017-01-31T02:55:15.620Z,21.82
2017-01-31T02:55:43.748Z,21.92
2017-01-31T02:56:11.680Z,21.9
2017-01-31T02:56:39.829Z,21.89
2017-01-31T02:57:08.031Z,21.89
2017-01-31T02:57:36.404Z,21.9
2017-01-31T02:58:04.575Z,21.89
2017-01-31T02:58:32.914Z,21.85
2017-01-31T02:59:01.326Z,21.83
2017-01-31T02:59:29.412Z,21.89
2017-01-31T02:59:57.609Z,21.92
2017-01-31T03:00:25.707Z,21.9
2017-01-31T03:00:53.728Z,21.83
2017-01-31T03:01:22.055Z,21.92
2017-01-31T03:01:50.232Z,21.83
2017-01-31T03:02:18.355Z,21.9
2017-01-31T03:02:46.654Z,21.9
2017-01-31T03:03:14.845Z,21.92
2017-01-31T03:03:43.057Z,21.83
2017-01-31T03:04:11.187Z,21.89
2017-01-31T03:04:39.478Z,21.86
2017-01-31T03:05:07.658Z,21.86
2017-01-31T03:05:35.861Z,21.86
2017-01-31T03:06:04.090Z,21.9
2017-01-31T03:06:32.219Z,21.85
2017-01-31T03:07:00.409Z,21.86
2017-01-31T03:07:28.536Z,21.89
2017-01-31T03:07:56.892Z,21.92
2017-01-31T03:08:24.976Z,21.89
2017-01-31T03:08:53.068Z,21.92
2017-01-31T03:09:21.301Z,21.9
2017-01-31T03:09:49.407Z,21.92
2017-01-31T03:10:17.542Z,21.92
2017-01-31T03:10:45.907Z,21.85
2017-01-31T03:11:14.284Z,21.83
2017-01-31T03:11:42.521Z,21.93
2017-01-31T03:12:10.876Z,21.85
2017-01-31T03:12:39.136Z,21.89
2017-01-31T03:13:39.106Z,21.89
2017-01-31T03:14:27.266Z,21.86
2017-01-31T03:15:14.736Z,21.83
2017-01-31T03:15:42.798Z,21.76
2017-01-31T03:16:10.888Z,21.82
2017-01-31T03:16:38.989Z,21.83
2017-01-31T03:17:07.057Z,21.85
2017-01-31T03:17:35.267Z,21.86
2017-01-31T03:18:03.636Z,21.78
2017-01-31T03:18:31.892Z,21.83
2017-01-31T03:19:00.117Z,21.89
2017-01-31T03:19:28.196Z,21.83
2017-01-31T03:19:56.449Z,21.92
2017-01-31T03:20:24.533Z,21.8
2017-01-31T03:20:52.462Z,21.8
2017-01-31T03:21:20.556Z,21.92
2017-01-31T03:21:48.651Z,21.8
2017-01-31T03:22:16.590Z,21.85
2017-01-31T03:22:44.811Z,21.78
2017-01-31T03:23:12.942Z,21.83
2017-01-31T03:23:41.022Z,21.9
2017-01-31T03:24:09.141Z,21.89
2017-01-31T03:24:37.181Z,21.93
2017-01-31T03:25:05.293Z,21.86
2017-01-31T03:25:33.404Z,21.92
2017-01-31T03:26:01.606Z,21.9
2017-01-31T03:26:29.857Z,21.83
2017-01-31T03:26:58.075Z,21.93
2017-01-31T03:27:26.282Z,21.89
2017-01-31T03:27:54.782Z,21.89
2017-01-31T03:28:22.876Z,21.86
2017-01-31T03:28:50.877Z,21.86
2017-01-31T03:29:19.069Z,21.85
2017-01-31T03:29:47.197Z,21.99
2017-01-31T03:30:15.253Z,22.04
2017-01-31T03:30:43.248Z,21.97
2017-01-31T03:31:11.183Z,21.97
2017-01-31T03:31:39.408Z,21.94
2017-01-31T03:32:07.617Z,21.97
2017-01-31T03:32:35.681Z,21.96
2017-01-31T03:33:03.994Z,21.89
2017-01-31T03:33:32.145Z,21.94
2017-01-31T03:34:00.214Z,21.94
2017-01-31T03:34:28.335Z,21.97
2017-01-31T03:34:56.376Z,21.94
2017-01-31T03:35:24.589Z,22.02
2017-01-31T03:35:52.691Z,21.96
2017-01-31T03:36:20.695Z,22
2017-01-31T03:36:48.738Z,22
2017-01-31T03:37:16.940Z,21.99
2017-01-31T03:37:44.969Z,21.92
2017-01-31T03:38:13.218Z,22.02
2017-01-31T03:38:41.268Z,22
2017-01-31T03:39:09.303Z,21.9
2017-01-31T03:39:37.493Z,21.99
2017-01-31T03:40:05.511Z,21.96
2017-01-31T03:40:33.783Z,21.92
2017-01-31T03:41:01.767Z,21.9
2017-01-31T03:41:29.998Z,21.86
2017-01-31T03:41:57.911Z,21.99
2017-01-31T03:42:25.915Z,21.94
2017-01-31T03:42:54.030Z,21.92
2017-01-31T03:43:22.197Z,21.86
2017-01-31T03:43:50.221Z,21.92
2017-01-31T03:44:18.308Z,22
2017-01-31T03:44:46.307Z,22
2017-01-31T03:45:14.311Z,21.99
2017-01-31T03:45:42.290Z,21.94
2017-01-31T03:46:10.299Z,22
2017-01-31T03:46:38.367Z,22
2017-01-31T03:47:06.427Z,21.92
2017-01-31T03:47:34.565Z,21.93
2017-01-31T03:48:02.759Z,21.93
2017-01-31T03:48:30.933Z,21.97
2017-01-31T03:48:58.872Z,22.02
2017-01-31T03:49:26.892Z,21.9
2017-01-31T03:49:55.126Z,21.97
2017-01-31T03:50:23.138Z,21.97
2017-01-31T03:50:51.247Z,21.92
2017-01-31T03:51:19.389Z,22.04
2017-01-31T03:51:47.440Z,21.94
2017-01-31T03:52:15.595Z,21.97
2017-01-31T03:52:43.559Z,22.05
2017-01-31T03:53:11.721Z,21.9
2017-01-31T03:53:39.752Z,21.94
2017-01-31T03:54:07.785Z,21.99
2017-01-31T03:54:35.985Z,21.93
2017-01-31T03:55:04.046Z,21.89
2017-01-31T03:55:31.982Z,21.9
2017-01-31T03:56:00.077Z,21.85
2017-01-31T03:56:28.219Z,21.86
2017-01-31T03:56:56.195Z,21.82
2017-01-31T03:57:24.315Z,21.89
2017-01-31T03:57:52.264Z,21.94
2017-01-31T03:58:20.713Z,21.78
2017-01-31T03:58:48.836Z,21.83
2017-01-31T03:59:16.780Z,21.92
2017-01-31T03:59:44.754Z,21.82
2017-01-31T04:00:12.664Z,21.78
2017-01-31T04:00:40.768Z,21.89
2017-01-31T04:01:08.832Z,21.85
2017-01-31T04:01:36.939Z,21.82
2017-01-31T04:02:05.108Z,21.85
2017-01-31T04:02:33.118Z,21.83
2017-01-31T04:03:01.244Z,21.74
2017-01-31T04:03:29.456Z,21.71
2017-01-31T04:03:57.535Z,21.8
2017-01-31T04:04:25.574Z,21.82
2017-01-31T04:04:53.716Z,21.77
2017-01-31T04:05:21.942Z,21.74
2017-01-31T04:05:50.108Z,21.82
2017-01-31T04:06:18.148Z,21.85
2017-01-31T04:06:46.060Z,21.86
2017-01-31T04:07:14.103Z,21.76
2017-01-31T04:07:42.343Z,21.85
2017-01-31T04:08:10.494Z,21.76
2017-01-31T04:08:38.751Z,21.86
2017-01-31T04:09:06.936Z,21.85
2017-01-31T04:09:34.970Z,21.82
2017-01-31T04:10:03.038Z,21.74
2017-01-31T04:10:31.067Z,21.73
2017-01-31T04:10:59.083Z,21.68
2017-01-31T04:11:26.999Z,21.73
2017-01-31T04:11:55.209Z,21.74
2017-01-31T04:12:23.332Z,21.7
2017-01-31T04:12:51.507Z,21.73
2017-01-31T04:13:19.677Z,21.77
2017-01-31T04:13:47.725Z,21.73
2017-01-31T04:14:15.674Z,21.73
2017-01-31T04:14:43.868Z,21.73
2017-01-31T04:15:11.977Z,21.77
2017-01-31T04:15:40.178Z,21.67
2017-01-31T04:16:08.258Z,21.73
2017-01-31T04:16:36.542Z,21.76
2017-01-31T04:17:04.657Z,21.67
2017-01-31T04:17:32.864Z,21.71
2017-01-31T04:18:01.092Z,21.74
2017-01-31T04:18:29.394Z,21.66
2017-01-31T04:18:57.423Z,21.68
2017-01-31T04:19:25.464Z,21.66
2017-01-31T04:19:53.490Z,21.74
2017-01-31T04:20:21.645Z,21.66
2017-01-31T04:20:49.850Z,21.67
2017-01-31T04:21:17.979Z,21.71
2017-01-31T04:21:46.164Z,21.76
2017-01-31T04:22:14.287Z,21.7
2017-01-31T04:22:42.307Z,21.73
2017-01-31T04:23:10.166Z,21.68
2017-01-31T04:23:38.360Z,21.68
2017-01-31T04:24:06.587Z,21.68
2017-01-31T04:24:34.632Z,21.76
2017-01-31T04:25:02.599Z,21.73
2017-01-31T04:25:30.724Z,21.68
2017-01-31T04:25:58.803Z,21.7
2017-01-31T04:26:26.937Z,21.71
2017-01-31T04:26:54.987Z,21.68
2017-01-31T04:27:23.121Z,21.56
2017-01-31T04:27:51.124Z,21.67
2017-01-31T04:28:19.294Z,21.67
2017-01-31T04:28:47.493Z,21.7
2017-01-31T04:29:15.631Z,21.58
2017-01-31T04:29:43.565Z,21.71
2017-01-31T04:30:11.637Z,21.61
2017-01-31T04:30:39.786Z,21.61
2017-01-31T04:31:07.760Z,21.56
2017-01-31T04:31:35.761Z,21.64
2017-01-31T04:32:04.003Z,21.68
2017-01-31T04:32:32.235Z,21.67
2017-01-31T04:33:00.498Z,21.68
2017-01-31T04:33:28.479Z,21.68
2017-01-31T04:33:56.755Z,21.68
2017-01-31T04:34:24.766Z,21.7
2017-01-31T04:34:52.893Z,21.62
2017-01-31T04:35:21.005Z,21.71
2017-01-31T04:35:49.078Z,21.7
2017-01-31T04:36:17.173Z,21.73
2017-01-31T04:36:45.277Z,21.59
2017-01-31T04:37:13.529Z,21.73
2017-01-31T04:37:41.505Z,21.7
2017-01-31T04:38:09.535Z,21.59
2017-01-31T04:38:37.779Z,21.53
2017-01-31T04:39:05.700Z,21.67
2017-01-31T04:39:33.715Z,21.7
2017-01-31T04:40:01.784Z,21.7
2017-01-31T04:40:29.770Z,21.59
2017-01-31T04:40:57.729Z,21.56
2017-01-31T04:41:25.859Z,21.61
2017-01-31T04:41:53.918Z,21.7
2017-01-31T04:42:22.000Z,21.66
2017-01-31T04:42:50.160Z,21.71
2017-01-31T04:43:18.260Z,21.59
2017-01-31T04:43:46.638Z,21.61
2017-01-31T04:44:14.662Z,21.7
2017-01-31T04:44:42.761Z,21.71
2017-01-31T04:45:10.963Z,21.7
2017-01-31T04:45:38.984Z,21.58
2017-01-31T04:46:07.017Z,21.53
2017-01-31T04:46:35.227Z,21.66
2017-01-31T04:47:03.126Z,21.62
2017-01-31T04:47:31.344Z,21.53
2017-01-31T04:47:59.452Z,21.52
2017-01-31T04:48:27.492Z,21.52
2017-01-31T04:48:55.714Z,21.67
2017-01-31T04:49:23.704Z,21.61
2017-01-31T04:49:51.819Z,21.61
2017-01-31T04:50:20.039Z,21.59
2017-01-31T04:50:48.086Z,21.52
2017-01-31T04:51:16.243Z,21.59
2017-01-31T04:51:44.363Z,21.61
2017-01-31T04:52:12.507Z,21.59
2017-01-31T04:52:40.626Z,21.58
2017-01-31T04:53:08.784Z,21.55
2017-01-31T04:53:36.888Z,21.67
2017-01-31T04:54:05.081Z,21.55
2017-01-31T04:54:33.296Z,21.53
2017-01-31T04:55:01.337Z,21.51
2017-01-31T04:55:29.321Z,21.58
2017-01-31T04:55:57.424Z,21.52
2017-01-31T04:56:25.568Z,21.46
2017-01-31T04:56:53.668Z,21.52
2017-01-31T04:57:21.657Z,21.52
2017-01-31T04:57:49.662Z,21.53
2017-01-31T04:58:17.730Z,21.53
2017-01-31T04:58:45.851Z,21.45
2017-01-31T04:59:14.064Z,21.51
2017-01-31T04:59:42.191Z,21.38
2017-01-31T05:00:10.350Z,21.46
2017-01-31T05:00:38.558Z,21.45
2017-01-31T05:01:06.672Z,21.46
2017-01-31T05:01:34.774Z,21.46
2017-01-31T05:02:02.851Z,21.4
2017-01-31T05:02:30.775Z,21.41
2017-01-31T05:02:59.021Z,21.46
2017-01-31T05:03:26.953Z,21.46
2017-01-31T05:03:55.316Z,21.46
2017-01-31T05:04:23.179Z,21.41
2017-01-31T05:04:51.232Z,21.41
2017-01-31T05:05:19.344Z,21.43
2017-01-31T05:05:47.290Z,21.45
2017-01-31T05:06:15.317Z,21.41
2017-01-31T05:06:43.346Z,21.41
2017-01-31T05:07:11.269Z,21.41
2017-01-31T05:07:39.397Z,21.45
2017-01-31T05:08:07.423Z,21.38
2017-01-31T05:08:35.641Z,21.38
2017-01-31T05:09:03.933Z,21.38
2017-01-31T05:09:32.053Z,21.37
2017-01-31T05:10:00.106Z,21.4
2017-01-31T05:10:28.219Z,21.38
2017-01-31T05:10:56.354Z,21.36
2017-01-31T05:11:24.268Z,21.38
2017-01-31T05:11:52.278Z,21.37
2017-01-31T05:12:20.416Z,21.51
2017-01-31T05:12:48.401Z,21.43
2017-01-31T05:13:16.435Z,21.37
2017-01-31T05:13:44.365Z,21.37
2017-01-31T05:14:12.556Z,21.43
2017-01-31T05:14:40.563Z,21.34
2017-01-31T05:15:08.746Z,21.37
2017-01-31T05:15:36.782Z,21.37
2017-01-31T05:16:04.738Z,21.33
2017-01-31T05:16:32.897Z,21.36
2017-01-31T05:17:01.100Z,21.4
2017-01-31T05:17:28.979Z,21.43
2017-01-31T05:17:57.049Z,21.4
2017-01-31T05:18:25.160Z,21.4
2017-01-31T05:18:53.304Z,21.37
2017-01-31T05:19:21.690Z,21.37
2017-01-31T05:19:49.618Z,21.41
2017-01-31T05:20:17.620Z,21.33
2017-01-31T05:20:45.624Z,21.36
2017-01-31T05:21:13.771Z,21.4
2017-01-31T05:21:41.666Z,21.3
2017-01-31T05:22:09.795Z,21.25
2017-01-31T05:22:37.909Z,21.27
2017-01-31T05:23:05.980Z,21.37
2017-01-31T05:23:34.049Z,21.33
2017-01-31T05:24:02.236Z,21.3
2017-01-31T05:24:30.555Z,21.27
2017-01-31T05:24:58.654Z,21.25
2017-01-31T05:25:26.598Z,21.31
2017-01-31T05:25:54.640Z,21.28
2017-01-31T05:26:22.752Z,21.33
2017-01-31T05:26:50.815Z,21.27
2017-01-31T05:27:18.952Z,21.33
2017-01-31T05:27:47.164Z,21.3
2017-01-31T05:28:15.322Z,21.3
2017-01-31T05:28:43.361Z,21.31
2017-01-31T05:29:11.783Z,21.31
2017-01-31T05:29:39.817Z,21.33
2017-01-31T05:30:08.009Z,21.28
2017-01-31T05:30:36.096Z,21.23
2017-01-31T05:31:04.306Z,21.23
2017-01-31T05:31:32.231Z,21.23
2017-01-31T05:32:00.238Z,21.28
2017-01-31T05:32:28.292Z,21.23
2017-01-31T05:32:56.293Z,21.23
2017-01-31T05:33:24.451Z,21.3
2017-01-31T05:33:52.558Z,21.3
2017-01-31T05:34:20.914Z,21.3
2017-01-31T05:34:49.030Z,21.22
2017-01-31T05:35:17.175Z,21.28
2017-01-31T05:35:45.313Z,21.23
2017-01-31T05:36:13.439Z,21.23
2017-01-31T05:36:41.452Z,21.23
2017-01-31T05:37:09.606Z,21.27
2017-01-31T05:37:37.743Z,21.28
2017-01-31T05:38:05.575Z,21.31
2017-01-31T05:38:33.783Z,21.28
2017-01-31T05:39:01.952Z,21.34
2017-01-31T05:39:30.349Z,21.31
2017-01-31T05:39:58.280Z,21.34
2017-01-31T05:40:26.404Z,21.23
2017-01-31T05:40:54.495Z,21.3
2017-01-31T05:41:22.573Z,21.37
2017-01-31T05:41:50.701Z,21.41
2017-01-31T05:42:18.728Z,21.27
2017-01-31T05:42:46.935Z,21.25
2017-01-31T05:43:14.995Z,21.27
2017-01-31T05:43:43.214Z,21.3
2017-01-31T05:44:11.418Z,21.41
2017-01-31T05:44:39.856Z,21.36
2017-01-31T05:45:07.900Z,21.36
2017-01-31T05:45:35.854Z,21.41
2017-01-31T05:46:03.888Z,21.41
2017-01-31T05:46:31.965Z,21.37
2017-01-31T05:46:59.939Z,21.37
2017-01-31T05:47:27.934Z,21.34
2017-01-31T05:47:56.144Z,21.34
2017-01-31T05:48:24.368Z,21.41
2017-01-31T05:48:52.506Z,21.27
2017-01-31T05:49:20.675Z,21.33
2017-01-31T05:49:49.000Z,21.4
2017-01-31T05:50:17.001Z,21.25
2017-01-31T05:50:45.032Z,21.43
2017-01-31T05:51:13.137Z,21.3
2017-01-31T05:51:41.257Z,21.43
2017-01-31T05:52:09.273Z,21.33
2017-01-31T05:52:37.442Z,21.31
2017-01-31T05:53:05.638Z,21.27
2017-01-31T05:53:33.901Z,21.28
2017-01-31T05:54:01.982Z,21.33
2017-01-31T05:54:30.156Z,21.33
2017-01-31T05:54:58.284Z,21.3
2017-01-31T05:55:26.273Z,21.34
2017-01-31T05:55:54.529Z,21.27
2017-01-31T05:56:22.589Z,21.31
2017-01-31T05:56:50.671Z,21.23
2017-01-31T05:57:18.596Z,21.31
2017-01-31T05:57:46.810Z,21.3
2017-01-31T05:58:14.919Z,21.4
2017-01-31T05:58:42.830Z,21.31
2017-01-31T05:59:11.014Z,21.28
2017-01-31T05:59:39.281Z,21.28
2017-01-31T06:00:07.319Z,21.43
2017-01-31T06:00:35.432Z,21.34
2017-01-31T06:01:03.641Z,21.3
2017-01-31T06:01:31.725Z,21.4
2017-01-31T06:01:59.839Z,21.36
2017-01-31T06:02:27.921Z,21.4
2017-01-31T06:02:56.042Z,21.28
2017-01-31T06:03:24.147Z,21.4
2017-01-31T06:03:52.068Z,21.38
2017-01-31T06:04:20.021Z,21.34
2017-01-31T06:04:48.170Z,21.4
2017-01-31T06:05:16.266Z,21.4
2017-01-31T06:05:44.223Z,21.3